sensor_id;sensor_type;location;lat;lon;timestamp;pressure;altitude;pressure_sealevel;temperature;humidity
47738;BME280;33502;47.182;27.506;2022-10-14T00:01:49;101006.53;;;9.38;100.00
47738;BME280;33502;47.182;27.506;2022-10-14T00:04:15;101001.31;;;9.35;100.00
47738;BME280;33502;47.182;27.506;2022-10-14T00:06:41;101002.28;;;9.33;100.00
47738;BME280;33502;47.182;27.506;2022-10-14T00:09:08;100999.66;;;9.31;100.00
47738;BME280;33502;47.182;27.506;2022-10-14T00:11:35;100997.06;;;9.30;100.00
47738;BME280;33502;47.182;27.506;2022-10-14T00:14:06;101001.53;;;9.28;100.00
47738;BME280;33502;47.182;27.506;2022-10-14T00:16:35;100990.13;;;9.26;100.00
47738;BME280;33502;47.182;27.506;2022-10-14T00:21:10;100991.03;;;9.25;100.00
47738;BME280;33502;47.182;27.506;2022-10-14T00:23:36;100990.19;;;9.23;100.00
47738;BME280;33502;47.182;27.506;2022-10-14T00:26:02;100987.56;;;9.23;100.00
47738;BME280;33502;47.182;27.506;2022-10-14T00:28:29;100989.34;;;9.22;100.00
47738;BME280;33502;47.182;27.506;2022-10-14T00:30:59;100980.59;;;9.20;100.00
47738;BME280;33502;47.182;27.506;2022-10-14T00:33:25;100987.66;;;9.19;100.00
47738;BME280;33502;47.182;27.506;2022-10-14T00:35:57;100973.63;;;9.17;100.00
47738;BME280;33502;47.182;27.506;2022-10-14T00:38:30;100977.16;;;9.16;100.00
47738;BME280;33502;47.182;27.506;2022-10-14T00:40:56;100965.75;;;9.14;100.00
47738;BME280;33502;47.182;27.506;2022-10-14T00:43:23;100969.25;;;9.15;100.00
47738;BME280;33502;47.182;27.506;2022-10-14T00:45:49;100966.69;;;9.13;100.00
47738;BME280;33502;47.182;27.506;2022-10-14T00:48:17;100964.94;;;9.12;100.00
47738;BME280;33502;47.182;27.506;2022-10-14T00:50:46;100961.41;;;9.13;100.00
47738;BME280;33502;47.182;27.506;2022-10-14T00:53:13;100958.78;;;9.12;100.00
47738;BME280;33502;47.182;27.506;2022-10-14T00:55:41;100964.13;;;9.10;100.00
47738;BME280;33502;47.182;27.506;2022-10-14T00:58:10;100958.84;;;9.10;100.00
47738;BME280;33502;47.182;27.506;2022-10-14T01:00:37;100951.75;;;9.11;100.00
47738;BME280;33502;47.182;27.506;2022-10-14T01:03:09;100949.16;;;9.09;100.00
47738;BME280;33502;47.182;27.506;2022-10-14T01:05:48;100949.13;;;9.11;100.00
47738;BME280;33502;47.182;27.506;2022-10-14T01:08:26;100944.69;;;9.11;100.00
47738;BME280;33502;47.182;27.506;2022-10-14T01:11:01;100946.47;;;9.11;100.00
47738;BME280;33502;47.182;27.506;2022-10-14T01:13:36;100949.97;;;9.11;100.00
47738;BME280;33502;47.182;27.506;2022-10-14T01:21:42;100951.72;;;9.12;100.00
47738;BME280;33502;47.182;27.506;2022-10-14T01:32:34;100949.09;;;9.12;100.00
47738;BME280;33502;47.182;27.506;2022-10-14T01:35:14;100945.66;;;9.09;100.00
47738;BME280;33502;47.182;27.506;2022-10-14T01:37:57;100945.69;;;9.07;100.00
47738;BME280;33502;47.182;27.506;2022-10-14T01:40:31;100941.34;;;9.06;100.00
47738;BME280;33502;47.182;27.506;2022-10-14T01:42:59;100943.03;;;9.07;100.00
47738;BME280;33502;47.182;27.506;2022-10-14T01:45:29;100932.50;;;9.06;100.00
47738;BME280;33502;47.182;27.506;2022-10-14T01:47:57;100936.13;;;9.03;100.00
47738;BME280;33502;47.182;27.506;2022-10-14T01:50:28;100943.19;;;9.02;100.00
47738;BME280;33502;47.182;27.506;2022-10-14T01:53:03;100939.69;;;9.02;100.00
47738;BME280;33502;47.182;27.506;2022-10-14T01:55:36;100931.78;;;9.00;100.00
47738;BME280;33502;47.182;27.506;2022-10-14T01:58:04;100937.94;;;9.01;100.00
47738;BME280;33502;47.182;27.506;2022-10-14T02:00:31;100940.56;;;9.01;100.00
47738;BME280;33502;47.182;27.506;2022-10-14T02:03:01;100934.41;;;9.02;100.00
47738;BME280;33502;47.182;27.506;2022-10-14T02:08:32;100932.50;;;9.06;100.00
47738;BME280;33502;47.182;27.506;2022-10-14T02:11:16;100930.75;;;9.06;100.00
47738;BME280;33502;47.182;27.506;2022-10-14T02:16:47;100931.56;;;9.10;100.00
47738;BME280;33502;47.182;27.506;2022-10-14T02:19:37;100931.56;;;9.10;100.00
47738;BME280;33502;47.182;27.506;2022-10-14T02:22:09;100932.41;;;9.10;100.00
47738;BME280;33502;47.182;27.506;2022-10-14T02:24:45;100937.69;;;9.10;100.00
47738;BME280;33502;47.182;27.506;2022-10-14T02:27:17;100938.56;;;9.11;100.00
47738;BME280;33502;47.182;27.506;2022-10-14T02:29:45;100928.91;;;9.10;100.00
47738;BME280;33502;47.182;27.506;2022-10-14T02:32:14;100933.31;;;9.09;100.00
47738;BME280;33502;47.182;27.506;2022-10-14T02:34:43;100924.59;;;9.06;100.00
47738;BME280;33502;47.182;27.506;2022-10-14T02:37:11;100927.19;;;9.07;100.00
47738;BME280;33502;47.182;27.506;2022-10-14T02:39:43;100927.22;;;9.06;100.00
47738;BME280;33502;47.182;27.506;2022-10-14T02:42:11;100929.88;;;9.06;100.00
47738;BME280;33502;47.182;27.506;2022-10-14T02:44:37;100931.66;;;9.05;100.00
47738;BME280;33502;47.182;27.506;2022-10-14T02:47:03;100929.94;;;9.04;100.00
47738;BME280;33502;47.182;27.506;2022-10-14T02:49:29;100934.34;;;9.04;100.00
47738;BME280;33502;47.182;27.506;2022-10-14T02:51:55;100925.50;;;9.05;100.00
47738;BME280;33502;47.182;27.506;2022-10-14T02:54:21;100921.13;;;9.04;100.00
47738;BME280;33502;47.182;27.506;2022-10-14T02:56:46;100924.66;;;9.04;100.00
47738;BME280;33502;47.182;27.506;2022-10-14T02:59:12;100927.31;;;9.04;100.00
47738;BME280;33502;47.182;27.506;2022-10-14T03:01:38;100923.75;;;9.04;100.00
47738;BME280;33502;47.182;27.506;2022-10-14T03:04:07;100922.91;;;9.03;100.00
47738;BME280;33502;47.182;27.506;2022-10-14T03:06:32;100914.97;;;9.03;100.00
47738;BME280;33502;47.182;27.506;2022-10-14T03:08:59;100920.25;;;9.03;100.00
47738;BME280;33502;47.182;27.506;2022-10-14T03:11:25;100920.25;;;9.03;100.00
47738;BME280;33502;47.182;27.506;2022-10-14T03:13:54;100922.88;;;9.05;100.00
47738;BME280;33502;47.182;27.506;2022-10-14T03:16:20;100921.94;;;9.06;100.00
47738;BME280;33502;47.182;27.506;2022-10-14T03:18:46;100921.09;;;9.05;100.00
47738;BME280;33502;47.182;27.506;2022-10-14T03:21:27;100921.94;;;9.06;100.00
47738;BME280;33502;47.182;27.506;2022-10-14T03:23:52;100925.47;;;9.06;100.00
47738;BME280;33502;47.182;27.506;2022-10-14T03:26:24;100920.22;;;9.05;100.00
47738;BME280;33502;47.182;27.506;2022-10-14T03:28:51;100911.38;;;9.06;100.00
47738;BME280;33502;47.182;27.506;2022-10-14T03:31:23;100909.63;;;9.06;100.00
47738;BME280;33502;47.182;27.506;2022-10-14T03:34:04;100916.63;;;9.07;100.00
47738;BME280;33502;47.182;27.506;2022-10-14T03:36:32;100909.53;;;9.09;100.00
47738;BME280;33502;47.182;27.506;2022-10-14T03:38:58;100915.69;;;9.10;100.00
47738;BME280;33502;47.182;27.506;2022-10-14T03:41:46;100904.25;;;9.09;100.00
47738;BME280;33502;47.182;27.506;2022-10-14T03:44:16;100914.81;;;9.09;100.00
47738;BME280;33502;47.182;27.506;2022-10-14T03:46:59;100913.91;;;9.10;100.00
47738;BME280;33502;47.182;27.506;2022-10-14T03:49:29;100906.84;;;9.11;100.00
47738;BME280;33502;47.182;27.506;2022-10-14T03:51:57;100901.59;;;9.09;100.00
47738;BME280;33502;47.182;27.506;2022-10-14T03:54:25;100912.09;;;9.12;100.00
47738;BME280;33502;47.182;27.506;2022-10-14T03:56:51;100914.69;;;9.14;100.00
47738;BME280;33502;47.182;27.506;2022-10-14T03:59:19;100908.56;;;9.13;100.00
47738;BME280;33502;47.182;27.506;2022-10-14T04:01:48;100906.81;;;9.12;100.00
47738;BME280;33502;47.182;27.506;2022-10-14T04:04:23;100910.28;;;9.14;100.00
47738;BME280;33502;47.182;27.506;2022-10-14T04:06:49;100908.56;;;9.13;100.00
47738;BME280;33502;47.182;27.506;2022-10-14T04:09:17;100910.28;;;9.14;100.00
47738;BME280;33502;47.182;27.506;2022-10-14T04:11:44;100911.19;;;9.13;100.00
47738;BME280;33502;47.182;27.506;2022-10-14T04:14:24;100910.28;;;9.14;100.00
47738;BME280;33502;47.182;27.506;2022-10-14T04:16:51;100912.91;;;9.14;100.00
47738;BME280;33502;47.182;27.506;2022-10-14T04:19:18;100912.03;;;9.15;100.00
47738;BME280;33502;47.182;27.506;2022-10-14T04:21:44;100914.66;;;9.15;100.00
47738;BME280;33502;47.182;27.506;2022-10-14T04:24:10;100914.66;;;9.15;100.00
47738;BME280;33502;47.182;27.506;2022-10-14T04:26:51;100911.97;;;9.17;100.00
47738;BME280;33502;47.182;27.506;2022-10-14T04:29:46;100912.88;;;9.16;100.00
47738;BME280;33502;47.182;27.506;2022-10-14T04:32:25;100913.78;;;9.15;100.00
47738;BME280;33502;47.182;27.506;2022-10-14T04:34:51;100907.63;;;9.14;100.00
47738;BME280;33502;47.182;27.506;2022-10-14T04:37:22;100893.56;;;9.14;100.00
47738;BME280;33502;47.182;27.506;2022-10-14T04:40:10;100906.81;;;9.12;100.00
47738;BME280;33502;47.182;27.506;2022-10-14T04:42:42;100897.13;;;9.11;100.00
47738;BME280;33502;47.182;27.506;2022-10-14T04:45:16;100905.06;;;9.11;100.00
47738;BME280;33502;47.182;27.506;2022-10-14T04:47:49;100902.41;;;9.11;100.00
47738;BME280;33502;47.182;27.506;2022-10-14T04:50:18;100904.13;;;9.14;100.00
47738;BME280;33502;47.182;27.506;2022-10-14T04:53:04;100905.84;;;9.15;100.00
47738;BME280;33502;47.182;27.506;2022-10-14T04:55:30;100898.81;;;9.15;100.00
47738;BME280;33502;47.182;27.506;2022-10-14T04:57:55;100897.88;;;9.16;100.00
47738;BME280;33502;47.182;27.506;2022-10-14T05:00:21;100889.97;;;9.16;100.00
47738;BME280;33502;47.182;27.506;2022-10-14T05:02:51;100891.66;;;9.19;100.00
47738;BME280;33502;47.182;27.506;2022-10-14T05:05:19;100884.59;;;9.19;100.00
47738;BME280;33502;47.182;27.506;2022-10-14T05:07:48;100890.72;;;9.21;100.00
47738;BME280;33502;47.182;27.506;2022-10-14T05:10:21;100888.03;;;9.23;100.00
47738;BME280;33502;47.182;27.506;2022-10-14T05:12:47;100887.97;;;9.25;100.00
47738;BME280;33502;47.182;27.506;2022-10-14T05:15:13;100890.53;;;9.28;100.00
47738;BME280;33502;47.182;27.506;2022-10-14T05:17:48;100890.47;;;9.31;100.00
47738;BME280;33502;47.182;27.506;2022-10-14T05:20:18;100891.28;;;9.33;100.00
47738;BME280;33502;47.182;27.506;2022-10-14T05:22:48;100888.53;;;9.36;100.00
47738;BME280;33502;47.182;27.506;2022-10-14T05:25:14;100902.56;;;9.38;100.00
47738;BME280;33502;47.182;27.506;2022-10-14T05:27:41;100905.13;;;9.41;100.00
47738;BME280;33502;47.182;27.506;2022-10-14T05:30:08;100902.50;;;9.41;100.00
47738;BME280;33502;47.182;27.506;2022-10-14T05:32:39;100905.91;;;9.45;100.00
47738;BME280;33502;47.182;27.506;2022-10-14T05:35:07;100914.63;;;9.48;100.00
47738;BME280;33502;47.182;27.506;2022-10-14T05:37:36;100919.88;;;9.50;100.00
47738;BME280;33502;47.182;27.506;2022-10-14T05:40:03;100918.91;;;9.52;100.00
47738;BME280;33502;47.182;27.506;2022-10-14T05:42:34;100920.59;;;9.55;100.00
47738;BME280;33502;47.182;27.506;2022-10-14T05:45:00;100921.41;;;9.57;100.00
47738;BME280;33502;47.182;27.506;2022-10-14T05:47:28;100925.72;;;9.61;100.00
47738;BME280;33502;47.182;27.506;2022-10-14T05:49:58;100915.97;;;9.63;100.00
47738;BME280;33502;47.182;27.506;2022-10-14T05:52:28;100914.06;;;9.67;100.00
47738;BME280;33502;47.182;27.506;2022-10-14T05:54:58;100923.56;;;9.74;100.00
47738;BME280;33502;47.182;27.506;2022-10-14T05:57:27;100912.88;;;9.78;100.00
47738;BME280;33502;47.182;27.506;2022-10-14T05:59:53;100926.88;;;9.82;100.00
47738;BME280;33502;47.182;27.506;2022-10-14T06:02:19;100927.59;;;9.86;100.00
47738;BME280;33502;47.182;27.506;2022-10-14T06:04:45;100927.53;;;9.89;100.00
47738;BME280;33502;47.182;27.506;2022-10-14T06:07:12;100922.16;;;9.92;100.00
47738;BME280;33502;47.182;27.506;2022-10-14T06:09:38;100923.84;;;9.94;100.00
47738;BME280;33502;47.182;27.506;2022-10-14T06:12:05;100922.88;;;9.97;100.00
47738;BME280;33502;47.182;27.506;2022-10-14T06:14:32;100925.47;;;9.98;100.00
47738;BME280;33502;47.182;27.506;2022-10-14T06:16:58;100921.91;;;9.99;100.00
47738;BME280;33502;47.182;27.506;2022-10-14T06:19:25;100931.53;;;10.02;100.00
47738;BME280;33502;47.182;27.506;2022-10-14T06:21:51;100921.78;;;10.04;100.00
47738;BME280;33502;47.182;27.506;2022-10-14T06:24:16;100935.72;;;10.09;100.00
47738;BME280;33502;47.182;27.506;2022-10-14T06:26:42;100929.47;;;10.12;100.00
47738;BME280;33502;47.182;27.506;2022-10-14T06:29:08;100928.44;;;10.16;100.00
47738;BME280;33502;47.182;27.506;2022-10-14T06:31:34;100932.72;;;10.20;100.00
47738;BME280;33502;47.182;27.506;2022-10-14T06:34:03;100931.75;;;10.24;100.00
47738;BME280;33502;47.182;27.506;2022-10-14T06:36:29;100932.44;;;10.31;100.00
47738;BME280;33502;47.182;27.506;2022-10-14T06:38:55;100933.16;;;10.36;100.00
47738;BME280;33502;47.182;27.506;2022-10-14T06:41:20;100940.03;;;10.42;100.00
47738;BME280;33502;47.182;27.506;2022-10-14T06:43:46;100933.59;;;10.49;100.00
47738;BME280;33502;47.182;27.506;2022-10-14T06:46:12;100933.44;;;10.55;100.00
47738;BME280;33502;47.182;27.506;2022-10-14T06:48:38;100939.53;;;10.57;100.00
47738;BME280;33502;47.182;27.506;2022-10-14T06:51:04;100935.06;;;10.59;100.00
47738;BME280;33502;47.182;27.506;2022-10-14T06:53:29;100936.72;;;10.62;100.00
47738;BME280;33502;47.182;27.506;2022-10-14T06:55:59;100931.34;;;10.65;100.00
47738;BME280;33502;47.182;27.506;2022-10-14T06:58:25;100935.81;;;10.63;100.00
47738;BME280;33502;47.182;27.506;2022-10-14T07:00:51;100942.88;;;10.62;100.00
47738;BME280;33502;47.182;27.506;2022-10-14T07:03:16;100940.34;;;10.59;100.00
47738;BME280;33502;47.182;27.506;2022-10-14T07:05:42;100938.59;;;10.58;100.00
47738;BME280;33502;47.182;27.506;2022-10-14T07:08:08;100933.31;;;10.58;100.00
47738;BME280;33502;47.182;27.506;2022-10-14T07:10:34;100934.19;;;10.58;100.00
47738;BME280;33502;47.182;27.506;2022-10-14T07:12:59;100942.19;;;10.57;100.00
47738;BME280;33502;47.182;27.506;2022-10-14T07:15:25;100932.50;;;10.56;100.00
47738;BME280;33502;47.182;27.506;2022-10-14T07:17:51;100935.97;;;10.58;100.00
47738;BME280;33502;47.182;27.506;2022-10-14T07:20:17;100935.91;;;10.60;100.00
47738;BME280;33502;47.182;27.506;2022-10-14T07:22:43;100937.59;;;10.62;100.00
47738;BME280;33502;47.182;27.506;2022-10-14T07:25:09;100936.59;;;10.66;100.00
47738;BME280;33502;47.182;27.506;2022-10-14T07:27:34;100938.22;;;10.70;100.00
47738;BME280;33502;47.182;27.506;2022-10-14T07:30:00;100940.75;;;10.73;100.00
47738;BME280;33502;47.182;27.506;2022-10-14T07:32:26;100929.25;;;10.74;100.00
47738;BME280;33502;47.182;27.506;2022-10-14T07:34:52;100926.38;;;10.81;100.00
47738;BME280;33502;47.182;27.506;2022-10-14T07:37:18;100935.84;;;10.88;100.00
47738;BME280;33502;47.182;27.506;2022-10-14T07:39:44;100935.56;;;10.97;100.00
47738;BME280;33502;47.182;27.506;2022-10-14T07:42:09;100936.22;;;11.02;100.00
47738;BME280;33502;47.182;27.506;2022-10-14T07:44:35;100932.63;;;11.05;100.00
47738;BME280;33502;47.182;27.506;2022-10-14T07:47:04;100936.09;;;11.07;100.00
47738;BME280;33502;47.182;27.506;2022-10-14T07:49:30;100938.56;;;11.11;100.00
47738;BME280;33502;47.182;27.506;2022-10-14T07:51:57;100942.03;;;11.13;100.00
47738;BME280;33502;47.182;27.506;2022-10-14T07:54:24;100941.97;;;11.15;100.00
47738;BME280;33502;47.182;27.506;2022-10-14T07:56:51;100937.50;;;11.17;100.00
47738;BME280;33502;47.182;27.506;2022-10-14T07:59:18;100946.03;;;11.25;100.00
47738;BME280;33502;47.182;27.506;2022-10-14T08:01:46;100944.09;;;11.30;100.00
47738;BME280;33502;47.182;27.506;2022-10-14T08:04:12;100943.19;;;11.31;100.00
47738;BME280;33502;47.182;27.506;2022-10-14T08:06:38;100943.94;;;11.35;100.00
47738;BME280;33502;47.182;27.506;2022-10-14T08:09:06;100936.19;;;11.29;100.00
47738;BME280;33502;47.182;27.506;2022-10-14T08:11:32;100948.75;;;11.24;100.00
47738;BME280;33502;47.182;27.506;2022-10-14T08:13:58;100945.13;;;11.26;100.00
47738;BME280;33502;47.182;27.506;2022-10-14T08:16:26;100944.13;;;11.29;100.00
47738;BME280;33502;47.182;27.506;2022-10-14T08:18:55;100943.09;;;11.33;100.00
47738;BME280;33502;47.182;27.506;2022-10-14T08:21:21;100945.47;;;11.41;100.00
47738;BME280;33502;47.182;27.506;2022-10-14T08:23:47;100935.53;;;11.47;100.00
47738;BME280;33502;47.182;27.506;2022-10-14T08:26:19;100937.38;;;11.45;100.00
47738;BME280;33502;47.182;27.506;2022-10-14T08:28:46;100940.94;;;11.44;100.00
47738;BME280;33502;47.182;27.506;2022-10-14T08:31:13;100943.53;;;11.46;100.00
47738;BME280;33502;47.182;27.506;2022-10-14T08:33:39;100941.72;;;11.46;100.00
47738;BME280;33502;47.182;27.506;2022-10-14T08:36:05;100951.66;;;11.41;100.00
47738;BME280;33502;47.182;27.506;2022-10-14T08:38:30;100941.16;;;11.38;100.00
47738;BME280;33502;47.182;27.506;2022-10-14T08:46:39;100950.03;;;11.37;100.00
47738;BME280;33502;47.182;27.506;2022-10-14T08:49:15;100946.47;;;11.38;100.00
47738;BME280;33502;47.182;27.506;2022-10-14T08:51:45;100949.28;;;11.33;100.00
47738;BME280;33502;47.182;27.506;2022-10-14T08:54:22;100948.31;;;11.36;100.00
47738;BME280;33502;47.182;27.506;2022-10-14T08:56:51;100940.06;;;11.44;100.00
47738;BME280;33502;47.182;27.506;2022-10-14T08:59:19;100942.66;;;11.45;100.00
47738;BME280;33502;47.182;27.506;2022-10-14T09:01:52;100939.75;;;11.53;100.00
47738;BME280;33502;47.182;27.506;2022-10-14T09:04:18;100939.75;;;11.53;100.00
47738;BME280;33502;47.182;27.506;2022-10-14T09:06:47;100943.28;;;11.52;100.00
47738;BME280;33502;47.182;27.506;2022-10-14T09:09:25;100949.41;;;11.54;100.00
47738;BME280;33502;47.182;27.506;2022-10-14T09:11:59;100951.19;;;11.53;100.00
47738;BME280;33502;47.182;27.506;2022-10-14T09:14:36;100950.16;;;11.57;100.00
47738;BME280;33502;47.182;27.506;2022-10-14T09:17:15;100951.66;;;11.65;100.00
47738;BME280;33502;47.182;27.506;2022-10-14T09:22:26;100953.94;;;11.75;100.00
47738;BME280;33502;47.182;27.506;2022-10-14T09:24:52;100951.16;;;11.79;100.00
47738;BME280;33502;47.182;27.506;2022-10-14T09:27:20;100948.34;;;11.83;100.00
47738;BME280;33502;47.182;27.506;2022-10-14T09:30:00;100939.13;;;11.93;100.00
47738;BME280;33502;47.182;27.506;2022-10-14T09:34:54;100947.19;;;12.14;100.00
47738;BME280;33502;47.182;27.506;2022-10-14T09:40:08;100952.00;;;12.26;100.00
47738;BME280;33502;47.182;27.506;2022-10-14T09:45:22;100951.63;;;12.36;100.00
47738;BME280;33502;47.182;27.506;2022-10-14T09:47:56;100954.03;;;12.42;100.00
47738;BME280;33502;47.182;27.506;2022-10-14T09:50:41;100951.28;;;12.45;100.00
47738;BME280;33502;47.182;27.506;2022-10-14T09:53:37;100951.16;;;12.48;100.00
47738;BME280;33502;47.182;27.506;2022-10-14T09:56:05;100958.63;;;12.38;100.00
47738;BME280;33502;47.182;27.506;2022-10-14T09:58:41;100950.53;;;12.41;100.00
47738;BME280;33502;47.182;27.506;2022-10-14T10:01:14;100956.56;;;12.45;100.00
47738;BME280;33502;47.182;27.506;2022-10-14T10:03:40;100957.31;;;12.48;100.00
47738;BME280;33502;47.182;27.506;2022-10-14T10:06:11;100957.38;;;12.47;100.00
47738;BME280;33502;47.182;27.506;2022-10-14T10:09:00;100956.84;;;12.39;100.00
47738;BME280;33502;47.182;27.506;2022-10-14T10:11:38;100958.69;;;12.37;100.00
47738;BME280;33502;47.182;27.506;2022-10-14T10:14:31;100953.22;;;12.40;100.00
47738;BME280;33502;47.182;27.506;2022-10-14T10:19:39;100951.16;;;12.48;100.00
47738;BME280;33502;47.182;27.506;2022-10-14T10:22:27;100955.34;;;12.53;100.00
47738;BME280;33502;47.182;27.506;2022-10-14T10:27:36;100955.91;;;12.62;100.00
47738;BME280;33502;47.182;27.506;2022-10-14T10:35:50;100951.44;;;12.62;100.00
47738;BME280;33502;47.182;27.506;2022-10-14T10:49:28;100941.88;;;12.36;100.00
47738;BME280;33502;47.182;27.506;2022-10-14T10:52:33;100940.75;;;12.42;100.00
47738;BME280;33502;47.182;27.506;2022-10-14T11:00:19;100927.31;;;12.46;100.00
47738;BME280;33502;47.182;27.506;2022-10-14T11:02:58;100925.41;;;12.50;100.00
47738;BME280;33502;47.182;27.506;2022-10-14T11:05:45;100933.09;;;12.56;100.00
47738;BME280;33502;47.182;27.506;2022-10-14T11:08:20;100929.00;;;12.69;100.00
47738;BME280;33502;47.182;27.506;2022-10-14T11:25:50;100901.00;;;14.55;100.00
47738;BME280;33502;47.182;27.506;2022-10-14T11:34:42;100888.78;;;14.51;100.00
47738;BME280;33502;47.182;27.506;2022-10-14T11:45:43;100897.91;;;13.92;100.00
47738;BME280;33502;47.182;27.506;2022-10-14T11:50:54;100895.94;;;13.95;100.00
47738;BME280;33502;47.182;27.506;2022-10-14T11:56:20;100897.31;;;13.85;100.00
47738;BME280;33502;47.182;27.506;2022-10-14T11:58:48;100898.91;;;13.70;100.00
47738;BME280;33502;47.182;27.506;2022-10-14T12:01:18;100898.09;;;13.68;100.00
47738;BME280;33502;47.182;27.506;2022-10-14T12:03:58;100893.00;;;13.63;100.00
47738;BME280;33502;47.182;27.506;2022-10-14T12:06:34;100897.22;;;13.48;100.00
47738;BME280;33502;47.182;27.506;2022-10-14T12:11:51;100891.97;;;13.47;100.00
47738;BME280;33502;47.182;27.506;2022-10-14T12:14:22;100884.22;;;13.42;100.00
47738;BME280;33502;47.182;27.506;2022-10-14T12:16:51;100884.44;;;13.38;100.00
47738;BME280;33502;47.182;27.506;2022-10-14T12:19:25;100877.31;;;13.38;100.00
47738;BME280;33502;47.182;27.506;2022-10-14T12:24:31;100876.72;;;13.50;100.00
47738;BME280;33502;47.182;27.506;2022-10-14T12:27:02;100875.66;;;13.55;100.00
47738;BME280;33502;47.182;27.506;2022-10-14T12:29:35;100870.69;;;13.47;100.00
47738;BME280;33502;47.182;27.506;2022-10-14T12:34:34;100874.66;;;13.38;100.00
47738;BME280;33502;47.182;27.506;2022-10-14T12:39:51;100868.00;;;13.28;100.00
47738;BME280;33502;47.182;27.506;2022-10-14T12:42:17;100864.50;;;13.26;100.00
47738;BME280;33502;47.182;27.506;2022-10-14T12:47:20;100863.81;;;13.22;100.00
47738;BME280;33502;47.182;27.506;2022-10-14T12:49:55;100865.59;;;13.22;100.00
47738;BME280;33502;47.182;27.506;2022-10-14T12:52:28;100858.41;;;13.24;100.00
47738;BME280;33502;47.182;27.506;2022-10-14T12:54:56;100862.75;;;13.26;100.00
47738;BME280;33502;47.182;27.506;2022-10-14T12:57:31;100861.94;;;13.24;100.00
47738;BME280;33502;47.182;27.506;2022-10-14T13:00:05;100861.00;;;13.25;100.00
47738;BME280;33502;47.182;27.506;2022-10-14T13:02:37;100858.22;;;13.28;100.00
47738;BME280;33502;47.182;27.506;2022-10-14T13:05:08;100855.84;;;13.22;100.00
47738;BME280;33502;47.182;27.506;2022-10-14T13:07:46;100857.63;;;13.22;100.00
47738;BME280;33502;47.182;27.506;2022-10-14T13:26:55;100845.50;;;12.96;100.00
47738;BME280;33502;47.182;27.506;2022-10-14T13:35:10;100851.81;;;12.93;100.00
47738;BME280;33502;47.182;27.506;2022-10-14T13:37:44;100855.34;;;12.93;100.00
47738;BME280;33502;47.182;27.506;2022-10-14T13:40:31;100849.03;;;12.96;100.00
47738;BME280;33502;47.182;27.506;2022-10-14T13:43:06;100858.72;;;12.97;100.00
47738;BME280;33502;47.182;27.506;2022-10-14T13:45:38;100848.06;;;12.97;100.00
47738;BME280;33502;47.182;27.506;2022-10-14T13:48:10;100858.66;;;12.99;100.00
47738;BME280;33502;47.182;27.506;2022-10-14T13:50:38;100847.09;;;13.00;100.00
47738;BME280;33502;47.182;27.506;2022-10-14T13:53:06;100855.88;;;13.02;100.00
47738;BME280;33502;47.182;27.506;2022-10-14T13:55:44;100855.00;;;13.01;100.00
47738;BME280;33502;47.182;27.506;2022-10-14T14:01:09;100848.63;;;13.05;100.00
47738;BME280;33502;47.182;27.506;2022-10-14T14:03:50;100852.06;;;13.07;100.00
47738;BME280;33502;47.182;27.506;2022-10-14T14:06:18;100854.56;;;13.10;100.00
47738;BME280;33502;47.182;27.506;2022-10-14T14:08:53;100837.56;;;13.15;100.00
47738;BME280;33502;47.182;27.506;2022-10-14T14:11:22;100842.06;;;13.12;100.00
47738;BME280;33502;47.182;27.506;2022-10-14T14:13:55;100847.66;;;13.06;100.00
47738;BME280;33502;47.182;27.506;2022-10-14T14:16:26;100843.47;;;13.01;100.00
47738;BME280;33502;47.182;27.506;2022-10-14T14:18:53;100844.63;;;12.95;100.00
47738;BME280;33502;47.182;27.506;2022-10-14T14:21:23;100846.53;;;12.91;100.00
47738;BME280;33502;47.182;27.506;2022-10-14T14:23:59;100849.47;;;12.85;100.00
47738;BME280;33502;47.182;27.506;2022-10-14T14:26:43;100848.75;;;12.82;100.00
47738;BME280;33502;47.182;27.506;2022-10-14T14:29:16;100841.06;;;12.76;100.00
47738;BME280;33502;47.182;27.506;2022-10-14T14:31:45;100844.84;;;12.70;100.00
47738;BME280;33502;47.182;27.506;2022-10-14T14:34:16;100842.41;;;12.65;100.00
47738;BME280;33502;47.182;27.506;2022-10-14T14:36:43;100836.41;;;12.60;100.00
47738;BME280;33502;47.182;27.506;2022-10-14T14:39:25;100835.72;;;12.55;100.00
47738;BME280;33502;47.182;27.506;2022-10-14T14:41:52;100840.41;;;12.50;100.00
47738;BME280;33502;47.182;27.506;2022-10-14T14:44:31;100832.59;;;12.45;100.00
47738;BME280;33502;47.182;27.506;2022-10-14T14:46:59;100836.38;;;12.40;100.00
47738;BME280;33502;47.182;27.506;2022-10-14T14:49:32;100830.41;;;12.34;100.00
47738;BME280;33502;47.182;27.506;2022-10-14T14:52:02;100824.44;;;12.29;100.00
47738;BME280;33502;47.182;27.506;2022-10-14T14:54:28;100827.19;;;12.26;100.00
47738;BME280;33502;47.182;27.506;2022-10-14T14:59:29;100815.25;;;12.16;100.00
47738;BME280;33502;47.182;27.506;2022-10-14T15:01:57;100815.44;;;12.11;100.00
47738;BME280;33502;47.182;27.506;2022-10-14T15:04:26;100825.38;;;12.06;100.00
47738;BME280;33502;47.182;27.506;2022-10-14T15:07:25;100822.84;;;12.03;100.00
47738;BME280;33502;47.182;27.506;2022-10-14T15:09:56;100823.94;;;11.98;100.00
47738;BME280;33502;47.182;27.506;2022-10-14T15:12:28;100825.00;;;11.93;100.00
47738;BME280;33502;47.182;27.506;2022-10-14T15:15:05;100818.97;;;11.90;100.00